Time;durP1;ratioP1;P1;durP2;ratioP2;P2;SDS_P1;SDS_P2;PMS_P1;PMS_P2;Temp;Humidity;BMP_temperature;BMP_pressure;BME280_temperature;BME280_humidity;BME280_pressure;Samples;Min_cycle;Max_cycle;Signal;HPM_P1;HPM_P2
2021/11/02 00:02:17;;;;;;;3.27;0.60;;;24.40;96.00;;;;;;5093552;28;20257;-70
2021/11/02 00:04:44;;;;;;;4.63;1.00;;;24.40;96.20;;;;;;5094790;28;20189;-76
2021/11/02 00:07:12;;;;;;;3.53;0.80;;;24.50;95.60;;;;;;5095101;28;20174;-71
2021/11/02 00:09:42;;;;;;;5.53;0.80;;;24.70;94.90;;;;;;5094647;28;20178;-69
2021/11/02 00:12:11;;;;;;;3.80;0.83;;;24.60;94.80;;;;;;5094852;28;20226;-68
2021/11/02 00:14:38;;;;;;;5.23;1.10;;;24.50;94.90;;;;;;5077512;28;20172;-74
2021/11/02 00:17:14;;;;;;;5.50;2.23;;;24.80;95.20;;;;;;5075042;28;20218;-73
2021/11/02 00:19:44;;;;;;;6.37;3.43;;;24.60;94.60;;;;;;5072267;28;20781;-74
2021/11/02 00:22:18;;;;;;;11.07;5.13;;;24.30;94.80;;;;;;5074343;28;20254;-67
2021/11/02 00:27:25;;;;;;;6.37;0.90;;;24.40;94.90;;;;;;5094734;28;20644;-72
2021/11/02 00:29:54;;;;;;;1.53;0.83;;;24.40;94.60;;;;;;5084021;28;20183;-72
2021/11/02 00:32:23;;;;;;;2.33;1.00;;;24.50;95.30;;;;;;5073599;28;20210;-72
2021/11/02 00:34:50;;;;;;;7.47;0.90;;;24.40;95.10;;;;;;5074732;28;20244;-73
2021/11/02 00:37:26;;;;;;;2.07;1.07;;;24.40;94.80;;;;;;5074402;28;20218;-69
2021/11/02 00:39:54;;;;;;;5.33;1.10;;;24.30;95.70;;;;;;5074090;28;20171;-72
2021/11/02 00:42:31;;;;;;;3.20;0.70;;;24.60;95.50;;;;;;5074285;28;20266;-68
2021/11/02 00:45:00;;;;;;;3.73;0.93;;;24.40;95.20;;;;;;5074105;28;20179;-69
2021/11/02 00:47:28;;;;;;;2.70;0.73;;;24.50;95.40;;;;;;5071856;28;20301;-69
2021/11/02 00:49:56;;;;;;;4.43;0.80;;;24.60;94.90;;;;;;5073748;28;20653;-70
2021/11/02 00:52:24;;;;;;;2.97;0.87;;;24.80;94.30;;;;;;5072507;28;20669;-70
2021/11/02 00:54:51;;;;;;;5.33;0.90;;;24.60;94.10;;;;;;5073916;28;20198;-70
2021/11/02 00:57:19;;;;;;;3.67;0.70;;;24.80;94.60;;;;;;5072973;28;20214;-70
2021/11/02 00:59:47;;;;;;;3.53;0.73;;;24.80;94.00;;;;;;5072416;28;20272;-72
2021/11/02 01:02:15;;;;;;;3.63;0.70;;;24.90;93.80;;;;;;5073297;28;20180;-71
2021/11/02 01:04:42;;;;;;;3.70;0.90;;;24.80;94.10;;;;;;5073781;28;20324;-73
2021/11/02 01:07:10;;;;;;;5.80;0.87;;;24.90;93.70;;;;;;5073005;28;20211;-74
2021/11/02 01:09:37;;;;;;;4.10;1.00;;;24.80;93.90;;;;;;5073290;28;20179;-70
2021/11/02 01:12:05;;;;;;;7.20;1.30;;;24.70;94.10;;;;;;5073795;28;20223;-73
2021/11/02 01:14:33;;;;;;;5.00;0.80;;;25.00;93.90;;;;;;5071704;28;20547;-70
2021/11/02 01:17:01;;;;;;;4.40;0.97;;;25.00;93.90;;;;;;5072325;28;20215;-72
2021/11/02 01:19:28;;;;;;;2.90;0.70;;;25.20;93.60;;;;;;5073276;28;20221;-71
2021/11/02 01:21:55;;;;;;;2.80;0.63;;;25.00;93.80;;;;;;5070994;28;20270;-68
2021/11/02 01:24:23;;;;;;;4.27;0.87;;;25.10;93.40;;;;;;5056368;28;20638;-71
2021/11/02 01:26:50;;;;;;;3.87;0.70;;;25.30;93.20;;;;;;5073454;28;20182;-70
2021/11/02 01:29:18;;;;;;;5.03;0.90;;;25.40;93.30;;;;;;5064556;28;20188;-72
2021/11/02 01:31:46;;;;;;;5.00;1.00;;;25.00;93.20;;;;;;5054170;28;20175;-71
2021/11/02 01:34:14;;;;;;;7.33;0.70;;;25.10;93.90;;;;;;5073203;28;20839;-67
2021/11/02 01:36:41;;;;;;;4.53;1.13;;;25.40;93.60;;;;;;5069121;28;20246;-70
2021/11/02 01:39:09;;;;;;;5.47;0.90;;;25.40;93.30;;;;;;5073220;28;20183;-70
2021/11/02 01:41:37;;;;;;;2.70;0.90;;;25.20;93.60;;;;;;5072003;28;20183;-71
2021/11/02 01:44:05;;;;;;;5.03;0.80;;;25.40;93.80;;;;;;5072088;28;20187;-70
2021/11/02 01:46:35;;;;;;;4.17;0.90;;;25.40;93.50;;;;;;5071924;28;20187;-69
2021/11/02 01:49:07;;;;;;;2.70;0.70;;;25.40;93.90;;;;;;5054898;28;20186;-69
2021/11/02 01:51:36;;;;;;;5.30;0.90;;;25.70;93.40;;;;;;5052771;28;20194;-72
2021/11/02 01:54:07;;;;;;;3.10;0.93;;;26.00;93.50;;;;;;5062095;28;20187;-73
2021/11/02 01:56:36;;;;;;;2.70;0.83;;;26.00;93.10;;;;;;5071217;28;20202;-68
2021/11/02 01:59:04;;;;;;;4.67;0.80;;;26.10;93.20;;;;;;5072685;28;20255;-70
2021/11/02 02:01:49;;;;;;;3.30;0.83;;;25.80;93.20;;;;;;5072133;28;20179;-73
2021/11/02 02:04:45;;;;;;;4.27;1.40;;;26.00;93.10;;;;;;5070909;28;20198;-75
2021/11/02 02:07:24;;;;;;;2.10;0.67;;;26.10;93.20;;;;;;5070433;28;20531;-71
2021/11/02 02:10:37;;;;;;;2.83;0.70;;;26.10;92.30;;;;;;5071699;28;20211;-66
2021/11/02 02:13:27;;;;;;;4.10;0.80;;;26.20;92.90;;;;;;5009999;28;20314;-73
2021/11/02 02:16:22;;;;;;;4.10;0.90;;;26.30;92.80;;;;;;5009630;28;20557;-73
2021/11/02 02:19:11;;;;;;;1.93;0.60;;;26.10;93.00;;;;;;5058699;28;20214;-76
2021/11/02 02:22:04;;;;;;;4.37;0.80;;;26.00;93.20;;;;;;5074037;28;20533;-74
2021/11/02 02:25:01;;;;;;;4.73;0.80;;;26.10;92.90;;;;;;5070967;28;20183;-71
2021/11/02 02:27:46;;;;;;;9.47;1.00;;;26.10;93.20;;;;;;5075467;28;20317;-71
2021/11/02 02:30:16;;;;;;;2.07;0.60;;;26.30;92.70;;;;;;5076946;28;20209;-70
2021/11/02 02:32:48;;;;;;;3.43;0.77;;;26.30;92.30;;;;;;5073347;28;20194;-72
2021/11/02 02:35:22;;;;;;;3.83;0.70;;;26.60;92.20;;;;;;5071756;28;20184;-67
2021/11/02 02:37:50;;;;;;;4.93;0.73;;;26.90;91.80;;;;;;5070843;28;20308;-67
2021/11/02 02:40:19;;;;;;;5.33;0.80;;;27.00;91.20;;;;;;5068354;28;20171;-72
2021/11/02 02:42:49;;;;;;;2.57;0.87;;;27.00;91.30;;;;;;5075043;28;20208;-69
2021/11/02 02:45:18;;;;;;;3.63;0.80;;;26.50;91.50;;;;;;5072341;28;20167;-70
2021/11/02 02:47:49;;;;;;;4.93;0.97;;;26.20;92.00;;;;;;5071338;28;20190;-69
2021/11/02 02:50:19;;;;;;;4.23;0.87;;;26.20;91.50;;;;;;5072298;28;20175;-71
2021/11/02 02:52:48;;;;;;;5.10;0.80;;;26.40;91.60;;;;;;5071750;28;20178;-71
2021/11/02 02:55:18;;;;;;;4.17;1.07;;;26.20;91.20;;;;;;5065611;28;20175;-71
2021/11/02 02:57:47;;;;;;;7.60;0.90;;;26.10;91.50;;;;;;5070806;28;20226;-70
2021/11/02 03:00:15;;;;;;;3.10;0.80;;;26.10;91.20;;;;;;5071906;28;20234;-71
2021/11/02 03:02:44;;;;;;;3.70;1.00;;;26.10;91.20;;;;;;5069605;28;20236;-68
2021/11/02 03:05:14;;;;;;;4.67;0.77;;;25.90;91.80;;;;;;5069710;28;20206;-66
2021/11/02 03:07:42;;;;;;;4.13;0.90;;;26.10;91.40;;;;;;5069179;28;20282;-70
2021/11/02 03:10:11;;;;;;;3.80;0.80;;;26.20;90.00;;;;;;5065875;28;20233;-69
2021/11/02 03:12:43;;;;;;;3.70;0.80;;;26.20;91.00;;;;;;5068527;28;20709;-70
2021/11/02 03:18:29;;;;;;;2.37;0.90;;;26.20;91.30;;;;;;5074873;28;20215;-70
2021/11/02 03:43:39;;;;;;;2.70;0.77;;;26.90;90.30;;;;;;5065758;28;20214;-69
2021/11/02 03:49:05;;;;;;;3.77;0.80;;;26.60;91.00;;;;;;5075025;28;20194;-74
2021/11/02 03:51:50;;;;;;;5.77;0.70;;;26.70;90.80;;;;;;5071956;28;20383;-73
2021/11/02 04:27:11;;;;;;;5.07;1.00;;;27.70;92.00;;;;;;5077671;28;20184;-71
2021/11/02 05:07:17;;;;;;;2.73;1.03;;;27.70;90.70;;;;;;5071492;28;20187;-67
2021/11/02 05:09:44;;;;;;;2.73;0.70;;;27.40;91.10;;;;;;5076487;28;20209;-68
2021/11/02 05:51:35;;;;;;;2.10;0.53;;;27.50;91.70;;;;;;5053482;28;20233;-69
2021/11/02 05:59:31;;;;;;;6.33;1.37;;;26.30;94.10;;;;;;5072687;28;20267;-70
2021/11/02 06:07:26;;;;;;;4.07;1.40;;;26.90;92.80;;;;;;5072140;28;20179;-69
2021/11/02 06:10:16;;;;;;;4.17;0.80;;;26.80;93.00;;;;;;5071207;28;20187;-69
2021/11/02 06:29:38;;;;;;;7.70;0.80;;;26.70;93.90;;;;;;5072943;28;20186;-70
2021/11/02 06:32:23;;;;;;;3.30;0.80;;;26.50;93.40;;;;;;5071335;28;20701;-70
2021/11/02 06:35:08;;;;;;;3.47;1.17;;;26.80;93.30;;;;;;5072370;28;20191;-72
2021/11/02 06:57:28;;;;;;;6.57;1.30;;;25.60;95.90;;;;;;5071656;28;20202;-72
2021/11/02 07:19:30;;;;;;;7.67;1.47;;;24.60;97.30;;;;;;5071720;28;20210;-71
2021/11/02 07:22:12;;;;;;;4.40;0.90;;;24.20;97.80;;;;;;5070936;28;20653;-69
2021/11/02 07:25:04;;;;;;;6.70;1.37;;;24.40;97.80;;;;;;5061011;28;20537;-69
2021/11/02 08:48:58;;;;;;;10.17;1.43;;;20.80;99.90;;;;;;5073896;28;20198;-70
2021/11/02 08:51:28;;;;;;;5.20;1.00;;;20.70;99.90;;;;;;5073690;28;20176;-71
2021/11/02 08:53:56;;;;;;;6.60;1.20;;;20.70;99.90;;;;;;5070836;28;20214;-69
2021/11/02 08:56:24;;;;;;;4.47;0.77;;;20.70;99.90;;;;;;5073483;28;20210;-68
2021/11/02 08:58:53;;;;;;;4.23;0.80;;;20.70;99.90;;;;;;5074137;28;20725;-71
2021/11/02 09:01:24;;;;;;;4.83;1.10;;;20.70;99.90;;;;;;5073611;28;20190;-73
2021/11/02 09:04:02;;;;;;;5.50;1.57;;;20.60;99.90;;;;;;5069437;28;20195;-71
2021/11/02 09:06:30;;;;;;;4.70;0.90;;;20.70;99.90;;;;;;5073643;28;20229;-71
2021/11/02 09:09:01;;;;;;;4.83;1.10;;;20.60;99.90;;;;;;5073445;28;20179;-71
2021/11/02 09:11:30;;;;;;;6.80;0.90;;;20.60;99.90;;;;;;5072893;28;20187;-71
2021/11/02 09:13:58;;;;;;;4.27;0.97;;;20.60;99.90;;;;;;5072824;28;20241;-73
2021/11/02 09:16:27;;;;;;;5.37;1.30;;;20.60;99.90;;;;;;5072411;28;20171;-72
2021/11/02 09:18:56;;;;;;;6.77;1.10;;;20.60;99.90;;;;;;5073069;28;20334;-71
2021/11/02 09:21:23;;;;;;;6.23;1.10;;;20.50;99.90;;;;;;5070225;28;20187;-72
2021/11/02 09:23:53;;;;;;;5.47;0.90;;;20.50;99.90;;;;;;5072470;28;20180;-72
2021/11/02 09:26:25;;;;;;;6.83;1.50;;;20.50;99.90;;;;;;5072043;28;20356;-69
2021/11/02 09:28:53;;;;;;;5.77;1.23;;;20.50;99.90;;;;;;5073112;28;20222;-72
2021/11/02 09:31:24;;;;;;;5.53;1.00;;;20.50;99.90;;;;;;5072624;28;20266;-69
2021/11/02 09:33:51;;;;;;;6.23;0.87;;;20.50;99.90;;;;;;5072739;28;20214;-71
2021/11/02 09:36:27;;;;;;;6.57;1.07;;;20.50;99.90;;;;;;5073182;28;20171;-72
2021/11/02 09:39:03;;;;;;;9.20;1.57;;;20.40;99.90;;;;;;5069347;28;20232;-74
2021/11/02 09:42:01;;;;;;;5.57;1.23;;;20.40;99.90;;;;;;5072638;28;20183;-71
2021/11/02 09:44:38;;;;;;;6.60;1.10;;;20.40;99.90;;;;;;5071245;28;20366;-70
2021/11/02 09:47:27;;;;;;;7.83;0.90;;;20.40;99.90;;;;;;5070121;28;20645;-72
2021/11/02 09:50:21;;;;;;;4.13;1.17;;;20.40;99.90;;;;;;5068290;28;20183;-75
2021/11/02 09:53:33;;;;;;;8.27;1.40;;;20.40;99.90;;;;;;5070610;28;20186;-70
2021/11/02 09:56:36;;;;;;;5.27;1.20;;;20.40;99.90;;;;;;5071942;28;20223;-71
2021/11/02 09:59:15;;;;;;;6.00;1.00;;;20.40;99.90;;;;;;5070738;28;20187;-70
2021/11/02 10:01:46;;;;;;;7.17;1.63;;;20.40;99.90;;;;;;5071976;28;20186;-70
2021/11/02 10:04:37;;;;;;;7.80;1.37;;;20.40;99.90;;;;;;5072415;28;20175;-70
2021/11/02 10:07:24;;;;;;;5.27;1.00;;;20.40;99.90;;;;;;5071071;28;20186;-69
2021/11/02 10:09:56;;;;;;;7.37;1.30;;;20.40;99.90;;;;;;5068410;28;20199;-74
2021/11/02 10:12:45;;;;;;;7.97;4.37;;;20.40;99.90;;;;;;5072103;28;20299;-70
2021/11/02 10:15:43;;;;;;;12.93;3.17;;;20.40;99.90;;;;;;5036364;28;20244;-73
2021/11/02 10:18:40;;;;;;;6.77;1.37;;;20.30;99.90;;;;;;5071314;28;20623;-73
2021/11/02 10:21:14;;;;;;;2.73;1.00;;;20.30;99.90;;;;;;5071468;28;20607;-76
2021/11/02 10:24:19;;;;;;;6.53;1.17;;;20.30;99.90;;;;;;5071580;28;20190;-70
2021/11/02 10:27:16;;;;;;;11.57;1.40;;;20.30;99.90;;;;;;5071771;28;20185;-73
2021/11/02 10:30:07;;;;;;;7.83;1.10;;;20.30;99.90;;;;;;5071869;28;20219;-71
2021/11/02 10:32:44;;;;;;;3.93;1.40;;;20.30;99.90;;;;;;5069830;28;20191;-69
2021/11/02 10:35:48;;;;;;;6.50;1.10;;;20.30;99.90;;;;;;5059436;28;20198;-70
2021/11/02 10:38:28;;;;;;;8.67;1.17;;;20.30;99.90;;;;;;5070959;28;20812;-70
2021/11/02 10:41:18;;;;;;;4.33;1.10;;;20.30;99.90;;;;;;5070281;28;20197;-70
2021/11/02 10:44:14;;;;;;;7.83;1.20;;;20.30;99.90;;;;;;5064921;28;20188;-72
2021/11/02 10:46:59;;;;;;;6.90;4.17;;;20.20;99.90;;;;;;5066940;28;20274;-71
2021/11/02 10:49:30;;;;;;;6.73;2.00;;;20.20;99.90;;;;;;5060273;28;20187;-71
2021/11/02 10:52:08;;;;;;;5.30;1.17;;;20.20;99.90;;;;;;5072091;28;20236;-73
2021/11/02 10:54:56;;;;;;;7.73;1.13;;;20.20;99.90;;;;;;5072399;28;20179;-70
2021/11/02 10:57:56;;;;;;;4.33;1.23;;;20.20;99.90;;;;;;5072045;28;20218;-70
2021/11/02 11:00:24;;;;;;;5.77;1.53;;;20.20;99.90;;;;;;5071493;28;20258;-69
2021/11/02 11:02:55;;;;;;;8.07;1.30;;;20.20;99.90;;;;;;5072389;28;20179;-74
2021/11/02 11:05:27;;;;;;;5.83;1.47;;;20.30;99.90;;;;;;5071771;28;20263;-70
2021/11/02 11:07:55;;;;;;;4.60;1.00;;;20.30;99.90;;;;;;5057542;28;20230;-69
2021/11/02 11:10:24;;;;;;;5.60;1.10;;;20.30;99.90;;;;;;5072041;28;20179;-70
2021/11/02 11:12:56;;;;;;;6.67;1.00;;;20.20;99.90;;;;;;5071614;28;20223;-75
2021/11/02 11:15:28;;;;;;;10.23;1.00;;;20.20;99.90;;;;;;5071926;28;20187;-70
2021/11/02 11:18:07;;;;;;;11.33;1.43;;;20.20;99.90;;;;;;5071455;28;20206;-73
2021/11/02 11:20:40;;;;;;;8.03;0.80;;;20.20;99.90;;;;;;5072083;28;20198;-71
2021/11/02 11:23:12;;;;;;;3.63;0.93;;;20.30;99.90;;;;;;5071194;28;20556;-71
2021/11/02 11:26:05;;;;;;;7.67;1.53;;;20.20;99.90;;;;;;5071778;28;20187;-70
2021/11/02 11:28:38;;;;;;;9.97;1.80;;;20.30;99.90;;;;;;5058941;28;20182;-70
2021/11/02 11:31:06;;;;;;;11.23;1.50;;;20.20;99.90;;;;;;5072021;28;20229;-68
2021/11/02 11:33:34;;;;;;;4.43;1.00;;;20.20;99.90;;;;;;5072340;28;20542;-73
2021/11/02 11:36:06;;;;;;;4.47;1.20;;;20.20;99.90;;;;;;5068378;28;20172;-71
2021/11/02 11:38:43;;;;;;;6.23;1.40;;;20.20;99.90;;;;;;5057578;28;20275;-69
2021/11/02 11:41:15;;;;;;;5.20;1.10;;;20.20;99.90;;;;;;5071167;28;20187;-71
2021/11/02 11:43:43;;;;;;;10.67;1.50;;;20.20;99.90;;;;;;5068041;28;20303;-69
2021/11/02 11:46:12;;;;;;;4.97;1.07;;;20.10;99.90;;;;;;5071669;28;20182;-71
2021/11/02 11:48:46;;;;;;;5.83;1.20;;;20.00;99.90;;;;;;5067158;28;20179;-69
2021/11/02 11:51:29;;;;;;;5.57;1.20;;;20.00;99.90;;;;;;5064320;28;20274;-71
2021/11/02 11:54:12;;;;;;;6.50;1.07;;;20.00;99.90;;;;;;5057409;28;20183;-70
2021/11/02 11:56:40;;;;;;;5.90;1.00;;;20.00;99.90;;;;;;5070676;28;20240;-69
2021/11/02 11:59:18;;;;;;;8.70;1.30;;;20.00;99.90;;;;;;5071649;28;20221;-71
2021/11/02 12:02:09;;;;;;;14.77;1.27;;;20.00;99.90;;;;;;5071156;28;20179;-72
2021/11/02 12:04:48;;;;;;;13.83;1.70;;;20.00;99.90;;;;;;5072215;28;20583;-68
2021/11/02 12:07:44;;;;;;;7.70;1.17;;;20.00;99.90;;;;;;5071431;28;20641;-69
2021/11/02 12:10:13;;;;;;;13.30;1.80;;;19.90;99.90;;;;;;5071801;28;20183;-69
2021/11/02 12:12:44;;;;;;;7.43;1.70;;;19.90;99.90;;;;;;5071480;28;20249;-72
2021/11/02 12:15:17;;;;;;;10.47;1.57;;;19.90;99.90;;;;;;5073208;28;20262;-69
2021/11/02 12:17:48;;;;;;;4.77;1.37;;;19.90;99.90;;;;;;5061839;28;20203;-69
2021/11/02 12:20:17;;;;;;;12.07;1.30;;;19.90;99.90;;;;;;5075340;28;20560;-70
2021/11/02 12:22:54;;;;;;;8.63;1.30;;;19.80;99.90;;;;;;5074819;28;20793;-69
2021/11/02 12:25:26;;;;;;;11.30;1.60;;;19.80;99.90;;;;;;5074894;28;20206;-70
2021/11/02 12:27:54;;;;;;;11.13;1.47;;;19.80;99.90;;;;;;5074701;28;20236;-68
2021/11/02 12:30:23;;;;;;;10.40;1.43;;;19.70;99.90;;;;;;5074524;28;20183;-69
2021/11/02 12:32:56;;;;;;;7.07;1.10;;;19.70;99.90;;;;;;5075291;28;20281;-69
2021/11/02 12:35:45;;;;;;;10.07;1.40;;;19.70;99.90;;;;;;5075207;28;20616;-70
2021/11/02 12:38:13;;;;;;;9.63;1.83;;;19.70;99.90;;;;;;5073961;28;20250;-70
2021/11/02 12:40:45;;;;;;;12.03;1.80;;;19.70;99.90;;;;;;5072822;28;20275;-70
2021/11/02 12:43:27;;;;;;;9.77;1.93;;;19.70;99.90;;;;;;5073080;28;20179;-68
2021/11/02 12:45:58;;;;;;;9.83;1.90;;;19.60;99.90;;;;;;5074730;28;20229;-69
2021/11/02 12:48:27;;;;;;;9.97;1.77;;;19.60;99.90;;;;;;5074864;28;20172;-69
2021/11/02 12:50:55;;;;;;;6.27;1.20;;;19.60;99.90;;;;;;5068593;28;20266;-69
2021/11/02 12:53:23;;;;;;;16.50;2.20;;;19.50;99.90;;;;;;5072267;28;20186;-69
2021/11/02 12:55:52;;;;;;;11.27;1.50;;;19.60;99.90;;;;;;5069131;28;20191;-71
2021/11/02 12:58:21;;;;;;;11.77;1.67;;;19.50;99.90;;;;;;5074584;28;20309;-72
2021/11/02 13:00:59;;;;;;;9.00;1.43;;;19.60;99.90;;;;;;5074463;28;20176;-69
2021/11/02 13:03:30;;;;;;;7.07;1.37;;;19.50;99.90;;;;;;5060505;28;20176;-71
2021/11/02 13:06:03;;;;;;;10.87;1.17;;;19.50;99.90;;;;;;5074475;28;20183;-70
2021/11/02 13:08:35;;;;;;;9.73;1.50;;;19.50;99.90;;;;;;5074118;28;20270;-70
2021/11/02 13:11:16;;;;;;;10.67;1.40;;;19.50;99.90;;;;;;5074164;28;20187;-72
2021/11/02 13:14:00;;;;;;;11.40;1.60;;;19.40;99.90;;;;;;5073946;28;20305;-71
2021/11/02 13:16:29;;;;;;;10.57;1.47;;;19.50;99.90;;;;;;5073033;28;20795;-69
2021/11/02 13:18:57;;;;;;;8.53;1.80;;;19.40;99.90;;;;;;5074247;28;20191;-70
2021/11/02 13:21:34;;;;;;;10.70;1.60;;;19.40;99.90;;;;;;5074016;28;20176;-68
2021/11/02 13:24:22;;;;;;;12.80;1.70;;;19.40;99.90;;;;;;5070517;28;20198;-70
2021/11/02 13:26:54;;;;;;;7.53;1.30;;;19.40;99.90;;;;;;5073100;28;20677;-72
2021/11/02 13:29:25;;;;;;;12.37;1.60;;;19.40;99.90;;;;;;5073907;28;20183;-69
2021/11/02 13:31:54;;;;;;;9.30;1.50;;;19.40;99.90;;;;;;5074161;28;20174;-68
2021/11/02 13:34:31;;;;;;;12.57;1.33;;;19.40;99.90;;;;;;5074240;28;20240;-69
2021/11/02 13:37:07;;;;;;;10.37;1.20;;;19.30;99.90;;;;;;5060578;28;20214;-69
2021/11/02 13:39:54;;;;;;;7.17;1.30;;;19.40;99.90;;;;;;5073504;28;20175;-69
2021/11/02 13:42:51;;;;;;;12.10;2.30;;;19.30;99.90;;;;;;5073716;28;20544;-69
2021/11/02 13:45:21;;;;;;;12.57;1.43;;;19.30;99.90;;;;;;5056462;28;20187;-69
2021/11/02 13:47:50;;;;;;;8.00;1.60;;;19.20;99.90;;;;;;5073798;28;20171;-69
2021/11/02 13:50:17;;;;;;;12.50;1.23;;;19.30;99.90;;;;;;5069076;28;20183;-69
2021/11/02 13:52:46;;;;;;;8.67;1.40;;;19.20;99.90;;;;;;5069888;28;20175;-69
2021/11/02 13:55:14;;;;;;;9.07;1.57;;;19.30;99.90;;;;;;5071972;28;20551;-70
2021/11/02 13:57:41;;;;;;;7.67;1.77;;;19.30;99.90;;;;;;5059661;28;20258;-70
2021/11/02 14:00:09;;;;;;;6.13;1.57;;;19.30;99.90;;;;;;5073688;28;20174;-69
2021/11/02 14:03:16;;;;;;;10.03;1.70;;;19.30;99.90;;;;;;5073563;28;20183;-69
2021/11/02 14:06:34;;;;;;;8.37;1.20;;;19.30;99.90;;;;;;5069773;28;20717;-69
2021/11/02 14:09:14;;;;;;;11.73;1.40;;;19.30;99.90;;;;;;5060250;28;20214;-69
2021/11/02 14:11:42;;;;;;;8.67;1.37;;;19.30;99.90;;;;;;5072951;28;20262;-69
2021/11/02 14:14:37;;;;;;;10.93;1.60;;;19.30;99.90;;;;;;5073062;28;20180;-71
2021/11/02 14:17:22;;;;;;;10.07;1.20;;;19.30;99.90;;;;;;5073170;28;20214;-70
2021/11/02 14:19:53;;;;;;;5.30;0.87;;;19.30;99.90;;;;;;5053336;28;20198;-69
2021/11/02 14:22:50;;;;;;;7.07;1.00;;;19.30;99.90;;;;;;5072484;28;20641;-68
2021/11/02 14:25:22;;;;;;;7.40;1.70;;;19.30;99.90;;;;;;5072845;28;20179;-70
2021/11/02 14:27:52;;;;;;;7.33;1.00;;;19.30;99.90;;;;;;5072652;28;20180;-68
2021/11/02 14:30:32;;;;;;;8.33;1.60;;;19.30;99.90;;;;;;5073096;28;20179;-69
2021/11/02 14:33:10;;;;;;;7.47;1.37;;;19.20;99.90;;;;;;5073037;28;20178;-69
2021/11/02 14:35:51;;;;;;;8.20;1.20;;;19.20;99.90;;;;;;5072521;28;20179;-70
2021/11/02 14:38:27;;;;;;;14.27;1.40;;;19.20;99.90;;;;;;5072455;28;20214;-70
2021/11/02 14:40:59;;;;;;;11.80;1.50;;;19.20;99.90;;;;;;5071530;28;20537;-68
2021/11/02 14:43:29;;;;;;;5.07;1.10;;;19.10;99.90;;;;;;5069574;28;20716;-70
2021/11/02 14:45:56;;;;;;;9.20;1.60;;;19.10;99.90;;;;;;5072738;28;20179;-69
2021/11/02 14:48:27;;;;;;;6.67;1.37;;;19.10;99.90;;;;;;5072958;28;20168;-69
2021/11/02 14:51:13;;;;;;;7.60;1.07;;;19.10;99.90;;;;;;5072671;28;20190;-68
2021/11/02 14:53:45;;;;;;;9.73;1.57;;;19.10;99.90;;;;;;5072458;28;20167;-69
2021/11/02 14:56:34;;;;;;;8.43;1.43;;;19.10;99.90;;;;;;5072300;28;20218;-69
2021/11/02 14:59:03;;;;;;;10.47;1.97;;;19.00;99.90;;;;;;5072898;28;20568;-68
2021/11/02 15:01:37;;;;;;;7.17;1.20;;;18.90;99.90;;;;;;5052208;28;20192;-68
2021/11/02 15:04:13;;;;;;;12.27;1.97;;;18.90;99.90;;;;;;5067680;28;20532;-69
2021/11/02 15:06:47;;;;;;;13.63;2.27;;;18.90;99.90;;;;;;5072549;28;20182;-70
2021/11/02 15:09:18;;;;;;;8.27;1.50;;;18.80;99.90;;;;;;5072401;28;20233;-69
2021/11/02 15:11:50;;;;;;;8.47;1.37;;;18.80;99.90;;;;;;5072003;28;20284;-71
2021/11/02 15:14:27;;;;;;;10.30;1.53;;;18.70;99.90;;;;;;5072675;28;20301;-70
2021/11/02 15:17:06;;;;;;;4.53;1.03;;;18.80;99.90;;;;;;5072419;28;20194;-72
2021/11/02 15:19:42;;;;;;;9.53;1.47;;;18.80;99.90;;;;;;5072773;28;20179;-70
2021/11/02 15:22:18;;;;;;;11.27;1.70;;;18.80;99.90;;;;;;5072512;28;20660;-70
2021/11/02 15:24:51;;;;;;;7.37;1.33;;;18.80;99.90;;;;;;5072316;28;20178;-69
2021/11/02 15:27:22;;;;;;;12.47;2.30;;;18.80;99.90;;;;;;5072206;28;20236;-69
2021/11/02 15:29:52;;;;;;;8.33;1.27;;;18.80;99.90;;;;;;5072268;28;20190;-70
2021/11/02 15:32:22;;;;;;;12.03;1.53;;;18.80;99.90;;;;;;5072483;28;20175;-70
2021/11/02 15:34:55;;;;;;;8.33;1.43;;;18.80;99.90;;;;;;5072049;28;20179;-70
2021/11/02 15:37:27;;;;;;;6.80;1.03;;;18.80;99.90;;;;;;5072178;28;20207;-69
2021/11/02 15:39:56;;;;;;;7.43;1.50;;;18.80;99.90;;;;;;5071896;28;20182;-68
2021/11/02 15:42:35;;;;;;;8.80;1.50;;;18.80;99.90;;;;;;5072134;28;20175;-69
2021/11/02 15:45:19;;;;;;;9.67;1.60;;;18.80;99.90;;;;;;5072489;28;20179;-69
2021/11/02 15:47:53;;;;;;;12.57;1.63;;;18.80;99.90;;;;;;5070332;28;20549;-74
2021/11/02 15:50:26;;;;;;;6.93;1.27;;;18.90;99.90;;;;;;5065968;28;20183;-69
2021/11/02 15:53:02;;;;;;;6.40;1.37;;;18.90;99.90;;;;;;5056080;28;20206;-72
2021/11/02 15:55:30;;;;;;;8.40;1.13;;;18.80;99.90;;;;;;5073477;28;20182;-71
2021/11/02 15:58:02;;;;;;;6.53;1.10;;;18.80;99.90;;;;;;5068490;28;20559;-70
2021/11/02 16:00:32;;;;;;;8.60;1.40;;;18.80;99.90;;;;;;5075840;28;20599;-69
2021/11/02 16:03:00;;;;;;;7.10;1.10;;;18.90;99.90;;;;;;5075339;28;20174;-69
2021/11/02 16:05:31;;;;;;;8.60;1.13;;;18.90;99.90;;;;;;5075834;28;20167;-70
2021/11/02 16:08:03;;;;;;;4.43;1.07;;;18.90;99.90;;;;;;5075418;28;20179;-73
2021/11/02 16:10:34;;;;;;;12.63;1.27;;;18.90;99.90;;;;;;5075752;28;20173;-69
2021/11/02 16:13:06;;;;;;;11.13;1.43;;;19.00;99.90;;;;;;5074977;28;20581;-70
2021/11/02 16:15:37;;;;;;;9.53;1.10;;;19.00;99.90;;;;;;5075377;28;20179;-70
2021/11/02 16:18:07;;;;;;;7.73;1.07;;;19.00;99.90;;;;;;5075723;28;20559;-70
2021/11/02 16:20:39;;;;;;;8.23;1.57;;;19.00;99.90;;;;;;5075402;28;20175;-69
2021/11/02 16:23:16;;;;;;;6.10;1.60;;;19.00;99.90;;;;;;5075228;28;20207;-69
2021/11/02 16:25:46;;;;;;;6.70;1.17;;;19.00;99.90;;;;;;5075165;28;20178;-69
2021/11/02 16:28:16;;;;;;;7.10;1.30;;;18.90;99.90;;;;;;5075389;28;20187;-73
2021/11/02 16:30:57;;;;;;;9.97;1.27;;;18.90;99.90;;;;;;5075156;28;20179;-68
2021/11/02 16:33:46;;;;;;;9.03;1.67;;;18.90;99.90;;;;;;5075399;28;20187;-70
2021/11/02 16:36:38;;;;;;;8.40;1.50;;;18.80;99.90;;;;;;5075191;28;20185;-69
2021/11/02 16:39:26;;;;;;;9.20;1.37;;;18.80;99.90;;;;;;5057512;28;20214;-70
2021/11/02 16:42:02;;;;;;;13.83;1.47;;;18.70;99.90;;;;;;5073674;28;20183;-71
2021/11/02 16:44:34;;;;;;;10.33;1.57;;;18.70;99.90;;;;;;5074260;28;20227;-70
2021/11/02 16:47:13;;;;;;;8.97;1.20;;;18.70;99.90;;;;;;5075140;28;20179;-69
2021/11/02 16:49:41;;;;;;;6.30;1.37;;;18.70;99.90;;;;;;5054984;28;20218;-70
2021/11/02 16:52:11;;;;;;;10.67;1.63;;;18.60;99.90;;;;;;5064533;28;20273;-69
2021/11/02 16:54:42;;;;;;;4.77;1.10;;;18.60;99.90;;;;;;5074539;28;20699;-70
2021/11/02 16:57:19;;;;;;;11.13;1.07;;;18.60;99.90;;;;;;5073962;28;20299;-70
2021/11/02 17:00:05;;;;;;;7.37;0.90;;;18.50;99.90;;;;;;5074775;28;20224;-74
2021/11/02 17:02:39;;;;;;;2.97;0.90;;;18.50;99.90;;;;;;5074907;28;20171;-69
2021/11/02 17:05:24;;;;;;;10.73;1.27;;;18.40;99.90;;;;;;5074784;28;20537;-69
2021/11/02 17:07:51;;;;;;;15.77;1.60;;;18.40;99.90;;;;;;5074725;28;20270;-73
2021/11/02 17:12:57;;;;;;;8.03;1.20;;;18.40;99.90;;;;;;5073780;28;20227;-71
2021/11/02 17:15:27;;;;;;;11.43;1.37;;;18.40;99.90;;;;;;5074532;28;20694;-72
2021/11/02 17:17:56;;;;;;;11.17;1.67;;;18.40;99.90;;;;;;5074357;28;20214;-71
2021/11/02 17:20:25;;;;;;;9.00;1.70;;;18.40;99.90;;;;;;5074322;28;20178;-72
2021/11/02 17:22:53;;;;;;;9.10;1.30;;;18.40;99.90;;;;;;5074313;28;20649;-74
2021/11/02 17:25:23;;;;;;;7.67;1.30;;;18.30;99.90;;;;;;5073824;28;20194;-69
2021/11/02 17:27:53;;;;;;;13.57;1.60;;;18.20;99.90;;;;;;5073592;28;20254;-70
2021/11/02 17:30:28;;;;;;;5.03;1.10;;;18.20;99.90;;;;;;5073259;28;20304;-69
2021/11/02 17:32:57;;;;;;;7.97;1.20;;;18.20;99.90;;;;;;5074330;28;20231;-70
2021/11/02 17:35:24;;;;;;;11.03;1.40;;;18.20;99.90;;;;;;5073929;28;20210;-73
2021/11/02 17:37:54;;;;;;;5.33;1.33;;;18.20;99.90;;;;;;5073569;28;20573;-69
2021/11/02 17:40:23;;;;;;;10.27;1.43;;;18.10;99.90;;;;;;5073720;28;20183;-68
2021/11/02 17:42:56;;;;;;;11.07;1.30;;;18.10;99.90;;;;;;5074028;28;20657;-70
2021/11/02 17:45:26;;;;;;;6.80;1.23;;;18.10;99.90;;;;;;5073535;28;20178;-78
2021/11/02 17:47:56;;;;;;;7.87;1.27;;;18.10;99.90;;;;;;5073671;28;20171;-76
2021/11/02 17:50:26;;;;;;;9.07;1.40;;;18.10;99.90;;;;;;5070897;28;20174;-73
2021/11/02 17:52:54;;;;;;;10.07;1.50;;;18.10;99.90;;;;;;5055927;28;20191;-77
2021/11/02 17:55:22;;;;;;;4.83;1.27;;;18.20;99.90;;;;;;5073513;28;20179;-76
2021/11/02 17:57:52;;;;;;;5.80;1.10;;;18.20;99.90;;;;;;5069530;28;20735;-77
2021/11/02 18:00:22;;;;;;;7.27;1.40;;;18.30;99.90;;;;;;5056207;28;20202;-69
2021/11/02 18:02:52;;;;;;;12.13;1.57;;;18.30;99.90;;;;;;5073826;28;20178;-71
2021/11/02 18:05:23;;;;;;;6.90;1.07;;;18.30;99.90;;;;;;5073463;28;20171;-68
2021/11/02 18:07:51;;;;;;;8.67;1.60;;;18.30;99.90;;;;;;5073370;28;20183;-68
2021/11/02 18:10:20;;;;;;;9.47;1.40;;;18.30;99.90;;;;;;5073161;28;20178;-73
2021/11/02 18:12:48;;;;;;;5.43;1.07;;;18.30;99.90;;;;;;5072301;28;20227;-72
2021/11/02 18:15:15;;;;;;;7.20;1.37;;;18.30;99.90;;;;;;5073677;28;20302;-68
2021/11/02 18:17:48;;;;;;;5.67;1.20;;;18.30;99.90;;;;;;5072990;28;20237;-69